createdAt,value
2022-07-29T00:01:45.646Z,15.51
2022-07-29T00:04:15.102Z,15.53
2022-07-29T00:06:44.326Z,15.46
2022-07-29T00:09:13.235Z,15.42
2022-07-29T00:11:43.605Z,15.38
2022-07-29T00:14:12.590Z,15.34
2022-07-29T00:16:41.671Z,15.30
2022-07-29T00:19:10.569Z,15.29
2022-07-29T00:21:39.895Z,15.30
2022-07-29T00:24:09.447Z,15.39
2022-07-29T00:26:38.383Z,15.47
2022-07-29T00:31:57.511Z,15.44
2022-07-29T00:34:43.603Z,15.39
2022-07-29T00:37:12.390Z,15.44
2022-07-29T00:39:41.198Z,15.42
2022-07-29T00:42:10.858Z,15.40
2022-07-29T00:44:42.651Z,15.44
2022-07-29T00:47:13.059Z,15.45
2022-07-29T00:49:43.301Z,15.56
2022-07-29T00:52:16.918Z,15.55
2022-07-29T00:54:46.712Z,15.58
2022-07-29T00:57:15.824Z,15.61
2022-07-29T00:59:46.125Z,15.65
2022-07-29T01:02:18.004Z,15.61
2022-07-29T01:04:49.911Z,15.67
2022-07-29T01:07:20.510Z,15.66
2022-07-29T01:09:49.894Z,15.67
2022-07-29T01:12:28.012Z,15.70
2022-07-29T01:14:59.063Z,15.68
2022-07-29T01:17:34.728Z,15.67
2022-07-29T01:20:12.915Z,15.67
2022-07-29T01:23:16.005Z,15.77
2022-07-29T01:26:03.967Z,15.90
2022-07-29T01:28:50.052Z,15.92
2022-07-29T01:31:33.819Z,15.94
2022-07-29T01:34:12.225Z,15.99
2022-07-29T01:36:54.516Z,15.93
2022-07-29T01:39:29.670Z,15.96
2022-07-29T01:42:11.502Z,15.88
2022-07-29T01:44:51.342Z,15.86
2022-07-29T01:47:27.804Z,15.88
2022-07-29T01:50:02.483Z,15.85
2022-07-29T01:52:40.440Z,15.91
2022-07-29T01:55:17.130Z,15.89
2022-07-29T01:57:50.179Z,15.92
2022-07-29T02:00:21.785Z,15.92
2022-07-29T02:02:52.914Z,15.93
2022-07-29T02:05:24.787Z,15.95
2022-07-29T02:07:56.301Z,15.97
2022-07-29T02:10:30.971Z,16.00
2022-07-29T02:13:03.543Z,16.01
2022-07-29T02:15:40.142Z,16.09
2022-07-29T02:18:16.531Z,16.08
2022-07-29T02:20:50.756Z,16.08
2022-07-29T02:23:25.277Z,16.09
2022-07-29T02:25:58.182Z,16.09
2022-07-29T02:28:31.643Z,16.07
2022-07-29T02:31:05.834Z,16.07
2022-07-29T02:33:36.105Z,16.02
2022-07-29T02:36:06.246Z,16.13
2022-07-29T02:38:53.761Z,16.19
2022-07-29T02:41:30.614Z,16.21
2022-07-29T02:44:07.390Z,16.21
2022-07-29T02:46:40.244Z,16.19
2022-07-29T02:49:18.317Z,16.28
2022-07-29T02:51:57.454Z,16.24
2022-07-29T02:54:34.068Z,16.29
2022-07-29T02:57:17.568Z,16.33
2022-07-29T02:59:52.212Z,16.37
2022-07-29T03:02:24.259Z,16.45
2022-07-29T03:04:56.510Z,16.56
2022-07-29T03:07:27.780Z,16.58
2022-07-29T03:09:58.072Z,16.65
2022-07-29T03:12:29.517Z,16.64
2022-07-29T03:15:01.220Z,16.74
2022-07-29T03:17:35.176Z,16.79
2022-07-29T03:20:05.103Z,16.83
2022-07-29T03:22:34.253Z,16.84
2022-07-29T03:25:14.031Z,16.86
2022-07-29T03:27:42.951Z,16.91
2022-07-29T03:30:21.763Z,16.94
2022-07-29T03:32:54.652Z,16.96
2022-07-29T03:35:25.807Z,17.00
2022-07-29T03:37:54.639Z,17.06
2022-07-29T03:40:29.947Z,17.07
2022-07-29T03:43:01.435Z,17.08
2022-07-29T03:45:34.159Z,17.12
2022-07-29T03:48:12.699Z,17.28
2022-07-29T03:50:43.863Z,17.40
2022-07-29T03:53:13.370Z,17.48
2022-07-29T03:55:47.274Z,17.63
2022-07-29T03:58:18.829Z,17.77
2022-07-29T04:00:48.743Z,17.88
2022-07-29T04:03:19.992Z,17.89
2022-07-29T04:06:02.467Z,17.94
2022-07-29T04:08:34.740Z,18.01
2022-07-29T04:11:08.229Z,18.10
2022-07-29T04:13:37.484Z,18.17
2022-07-29T04:16:07.064Z,18.26
2022-07-29T04:18:37.377Z,18.37
2022-07-29T04:21:06.256Z,18.44
2022-07-29T04:23:49.370Z,18.51
2022-07-29T04:26:23.334Z,18.65
2022-07-29T04:28:52.189Z,18.72
2022-07-29T04:31:25.556Z,18.79
2022-07-29T04:33:56.510Z,18.84
2022-07-29T04:36:28.696Z,18.91
2022-07-29T04:38:58.758Z,18.98
2022-07-29T04:41:33.163Z,19.16
2022-07-29T04:44:06.171Z,19.28
2022-07-29T04:46:46.517Z,19.34
2022-07-29T04:49:19.503Z,19.46
2022-07-29T04:51:49.672Z,19.55
2022-07-29T04:54:18.872Z,19.64
2022-07-29T04:56:51.874Z,19.76
2022-07-29T04:59:20.792Z,19.84
2022-07-29T05:01:49.852Z,19.94
2022-07-29T05:04:20.692Z,20.05
2022-07-29T05:06:50.770Z,20.14
2022-07-29T05:09:19.677Z,20.10
2022-07-29T05:11:48.558Z,20.14
2022-07-29T05:14:17.845Z,20.17
2022-07-29T05:16:46.856Z,20.15
2022-07-29T05:19:15.881Z,20.21
2022-07-29T05:21:47.292Z,20.24
2022-07-29T05:24:16.650Z,20.36
2022-07-29T05:26:45.913Z,20.64
2022-07-29T05:29:42.750Z,20.77
2022-07-29T05:32:03.590Z,20.80
2022-07-29T05:34:32.649Z,20.85
2022-07-29T05:37:02.902Z,20.87
2022-07-29T05:39:47.222Z,20.92
2022-07-29T05:42:19.893Z,20.85
2022-07-29T05:44:49.632Z,20.91
2022-07-29T05:47:18.481Z,20.84
2022-07-29T05:49:47.441Z,20.87
2022-07-29T05:52:19.154Z,21.12
2022-07-29T05:54:47.969Z,21.26
2022-07-29T05:57:20.933Z,21.35
2022-07-29T05:59:50.922Z,21.49
2022-07-29T06:02:32.237Z,21.16
2022-07-29T06:05:01.111Z,21.56
2022-07-29T06:07:33.936Z,21.42
2022-07-29T06:10:06.362Z,21.46
2022-07-29T06:12:35.445Z,21.58
2022-07-29T06:15:04.541Z,21.47
2022-07-29T06:17:33.685Z,21.70
2022-07-29T06:20:02.905Z,21.85
2022-07-29T06:22:34.280Z,21.82
2022-07-29T06:25:04.765Z,21.75
2022-07-29T06:27:33.636Z,21.75
2022-07-29T06:30:07.713Z,21.60
2022-07-29T06:32:42.727Z,21.66
2022-07-29T06:35:37.795Z,21.48
2022-07-29T06:38:02.581Z,21.59
2022-07-29T06:40:49.000Z,21.77
2022-07-29T06:43:17.875Z,21.72
2022-07-29T06:45:46.831Z,21.92
2022-07-29T06:48:15.713Z,22.04
2022-07-29T06:50:44.655Z,22.05
2022-07-29T06:53:15.465Z,22.25
2022-07-29T06:55:44.586Z,22.27
2022-07-29T06:58:15.253Z,22.10
2022-07-29T07:00:44.040Z,22.05
2022-07-29T07:03:13.023Z,22.17
2022-07-29T07:05:42.173Z,22.12
2022-07-29T07:08:11.206Z,22.08
2022-07-29T07:10:41.897Z,21.94
2022-07-29T07:13:13.648Z,21.94
2022-07-29T07:15:42.821Z,21.86
2022-07-29T07:18:11.803Z,21.65
2022-07-29T07:20:40.667Z,21.68
2022-07-29T07:23:09.562Z,21.62
2022-07-29T07:25:38.736Z,21.39
2022-07-29T07:28:09.083Z,21.19
2022-07-29T07:30:44.645Z,21.35
2022-07-29T07:33:13.634Z,21.35
2022-07-29T07:35:42.780Z,21.61
2022-07-29T07:38:11.914Z,21.52
2022-07-29T07:40:41.424Z,21.51
2022-07-29T07:43:11.691Z,21.66
2022-07-29T07:45:41.320Z,21.57
2022-07-29T07:48:11.290Z,21.52
2022-07-29T07:50:40.228Z,21.42
2022-07-29T07:53:09.194Z,21.38
2022-07-29T07:58:35.870Z,21.66
2022-07-29T08:01:07.701Z,21.78
2022-07-29T08:03:36.669Z,21.78
2022-07-29T08:06:07.257Z,21.92
2022-07-29T08:08:37.158Z,21.98
2022-07-29T08:11:09.806Z,21.92
2022-07-29T08:13:40.766Z,22.25
2022-07-29T08:16:16.596Z,22.28
2022-07-29T08:18:47.677Z,22.23
2022-07-29T08:21:17.448Z,21.90
2022-07-29T08:24:00.809Z,21.61
2022-07-29T08:26:31.916Z,21.48
2022-07-29T08:29:02.591Z,21.45
2022-07-29T08:31:31.701Z,21.59
2022-07-29T08:34:01.167Z,21.52
2022-07-29T08:36:30.247Z,21.49
2022-07-29T08:38:59.722Z,21.54
2022-07-29T08:41:30.041Z,21.68
2022-07-29T08:43:58.839Z,21.63
2022-07-29T08:46:30.463Z,21.63
2022-07-29T08:49:04.452Z,21.60
2022-07-29T08:51:49.388Z,21.64
2022-07-29T08:54:21.079Z,21.69
2022-07-29T08:56:54.845Z,21.74
2022-07-29T08:59:29.077Z,21.70
2022-07-29T09:02:02.721Z,21.44
2022-07-29T09:04:38.298Z,21.41
2022-07-29T09:07:08.582Z,21.67
2022-07-29T09:09:39.077Z,21.68
2022-07-29T09:12:09.381Z,21.70
2022-07-29T09:14:38.341Z,21.67
2022-07-29T09:17:10.018Z,21.61
2022-07-29T09:19:45.387Z,21.73
2022-07-29T09:22:41.852Z,21.57
2022-07-29T09:25:14.874Z,21.76
2022-07-29T09:27:44.181Z,21.85
2022-07-29T09:30:17.398Z,21.96
2022-07-29T09:33:08.924Z,22.09
2022-07-29T09:35:37.684Z,22.15
2022-07-29T09:38:14.340Z,22.20
2022-07-29T09:40:43.480Z,22.05
2022-07-29T09:43:14.439Z,22.23
2022-07-29T09:45:43.732Z,22.01
2022-07-29T09:48:20.235Z,22.35
2022-07-29T09:50:50.842Z,22.32
2022-07-29T09:53:40.978Z,22.26
2022-07-29T09:56:11.752Z,22.13
2022-07-29T09:58:40.813Z,22.17
2022-07-29T10:01:09.798Z,22.38
2022-07-29T10:06:30.862Z,21.57
2022-07-29T10:09:16.637Z,22.17
2022-07-29T10:12:10.291Z,21.53
2022-07-29T10:14:40.889Z,22.06
2022-07-29T10:17:11.168Z,22.15
2022-07-29T10:19:43.031Z,22.08
2022-07-29T10:22:14.973Z,21.99
2022-07-29T10:24:44.009Z,22.37
2022-07-29T10:27:13.772Z,22.27
2022-07-29T10:29:42.837Z,22.13
2022-07-29T10:32:33.138Z,22.28
2022-07-29T10:35:22.198Z,22.25
2022-07-29T10:38:29.483Z,21.87
2022-07-29T10:41:32.060Z,22.17
2022-07-29T10:44:17.147Z,22.06
2022-07-29T10:46:51.736Z,22.06
2022-07-29T10:49:25.202Z,21.93
2022-07-29T10:52:06.984Z,21.85
2022-07-29T10:54:48.466Z,21.81
2022-07-29T10:57:53.026Z,21.78
2022-07-29T11:00:34.984Z,21.59
2022-07-29T11:03:08.526Z,21.61
2022-07-29T11:05:59.930Z,21.58
2022-07-29T11:08:29.950Z,21.73
2022-07-29T11:11:44.079Z,21.76
2022-07-29T11:14:26.579Z,21.54
2022-07-29T11:17:09.179Z,21.73
2022-07-29T11:19:44.733Z,22.01
2022-07-29T11:22:43.127Z,22.02
2022-07-29T11:25:17.712Z,22.10
2022-07-29T11:27:48.202Z,22.09
2022-07-29T11:30:17.551Z,22.15
2022-07-29T11:32:48.668Z,22.18
2022-07-29T11:35:37.315Z,22.32
2022-07-29T11:38:29.292Z,22.41
2022-07-29T11:41:27.160Z,22.34
2022-07-29T11:44:00.132Z,22.50
2022-07-29T11:46:50.118Z,22.63
2022-07-29T11:49:31.955Z,22.53
2022-07-29T11:52:04.010Z,22.55
2022-07-29T11:54:57.030Z,22.47
2022-07-29T11:57:36.070Z,22.64
2022-07-29T12:00:12.342Z,22.66
2022-07-29T12:02:48.227Z,22.59
2022-07-29T12:05:35.892Z,22.64
2022-07-29T12:08:15.679Z,22.64
2022-07-29T12:10:46.958Z,22.57
2022-07-29T12:13:22.235Z,22.52
2022-07-29T12:16:00.142Z,22.28
2022-07-29T12:18:29.375Z,22.23
2022-07-29T12:21:04.901Z,22.20
2022-07-29T12:23:37.555Z,22.10
2022-07-29T12:26:10.974Z,21.99
2022-07-29T12:28:52.314Z,22.15
2022-07-29T12:31:43.236Z,21.96
2022-07-29T12:34:14.084Z,22.13
2022-07-29T12:36:45.081Z,22.22
2022-07-29T12:39:14.589Z,22.14
2022-07-29T12:41:43.841Z,22.05
2022-07-29T12:44:19.178Z,22.04
2022-07-29T12:47:04.878Z,22.01
2022-07-29T12:49:38.141Z,22.05
2022-07-29T12:52:30.107Z,21.95
2022-07-29T12:55:13.552Z,21.99
2022-07-29T12:57:55.630Z,22.04
2022-07-29T13:00:26.386Z,22.23
2022-07-29T13:03:01.866Z,22.36
2022-07-29T13:05:48.867Z,22.43
2022-07-29T13:08:29.640Z,22.33
2022-07-29T13:10:58.686Z,22.27
2022-07-29T13:13:27.618Z,22.22
2022-07-29T13:16:11.690Z,22.17
2022-07-29T13:18:42.419Z,22.13
2022-07-29T13:21:18.981Z,21.99
2022-07-29T13:23:47.908Z,22.26
2022-07-29T13:26:20.765Z,22.43
2022-07-29T13:28:51.864Z,22.45
2022-07-29T13:31:21.074Z,22.48
2022-07-29T13:33:53.811Z,22.18
2022-07-29T13:36:25.057Z,22.29
2022-07-29T13:38:54.144Z,22.26
2022-07-29T13:41:23.177Z,22.30
2022-07-29T13:43:56.407Z,22.31
2022-07-29T13:46:25.435Z,22.28
2022-07-29T13:48:56.854Z,22.17
2022-07-29T13:51:26.716Z,22.13
2022-07-29T13:53:58.461Z,22.07
2022-07-29T13:56:28.023Z,21.75
2022-07-29T13:58:58.495Z,21.62
2022-07-29T14:01:28.653Z,21.61
2022-07-29T14:04:02.119Z,21.59
2022-07-29T14:06:34.564Z,21.43
2022-07-29T14:09:09.716Z,21.54
2022-07-29T14:11:39.541Z,21.82
2022-07-29T14:14:08.550Z,21.90
2022-07-29T14:16:43.034Z,21.87
2022-07-29T14:19:16.770Z,21.79
2022-07-29T14:21:51.612Z,21.81
2022-07-29T14:24:21.642Z,21.65
2022-07-29T14:26:52.971Z,21.69
2022-07-29T14:29:23.315Z,21.82
2022-07-29T14:32:07.812Z,21.93
2022-07-29T14:34:39.478Z,22.10
2022-07-29T14:37:09.537Z,22.20
2022-07-29T14:39:45.127Z,22.16
2022-07-29T14:42:14.219Z,22.04
2022-07-29T14:44:44.661Z,22.40
2022-07-29T14:47:14.108Z,22.66
2022-07-29T14:50:10.963Z,22.74
2022-07-29T14:52:40.335Z,23.08
2022-07-29T14:55:19.408Z,23.32
2022-07-29T14:57:51.281Z,23.33
2022-07-29T15:00:22.435Z,23.41
2022-07-29T15:03:01.914Z,23.43
2022-07-29T15:05:34.119Z,23.37
2022-07-29T15:11:00.560Z,23.27
2022-07-29T15:13:31.069Z,23.23
2022-07-29T15:16:03.707Z,23.39
2022-07-29T15:18:33.328Z,23.41
2022-07-29T15:21:04.098Z,23.39
2022-07-29T15:23:34.055Z,23.77
2022-07-29T15:26:03.725Z,23.76
2022-07-29T15:28:32.817Z,24.06
2022-07-29T15:31:07.509Z,23.90
2022-07-29T15:33:38.116Z,23.84
2022-07-29T15:36:09.398Z,23.53
2022-07-29T15:38:41.952Z,23.71
2022-07-29T15:41:12.587Z,23.92
2022-07-29T15:43:46.088Z,24.07
2022-07-29T15:46:34.361Z,23.93
2022-07-29T15:49:04.932Z,24.25
2022-07-29T15:51:36.666Z,23.85
2022-07-29T15:54:07.385Z,23.77
2022-07-29T15:56:36.718Z,23.34
2022-07-29T15:59:05.660Z,23.19
2022-07-29T16:01:34.634Z,22.79
2022-07-29T16:04:03.554Z,22.40
2022-07-29T16:06:34.259Z,21.73
2022-07-29T16:09:03.167Z,21.43
2022-07-29T16:11:33.843Z,21.08
2022-07-29T16:14:06.560Z,20.94
2022-07-29T16:16:38.457Z,20.64
2022-07-29T16:19:09.813Z,20.46
2022-07-29T16:21:41.029Z,20.46
2022-07-29T16:24:11.668Z,20.31
2022-07-29T16:26:42.437Z,20.20
2022-07-29T16:29:14.224Z,20.11
2022-07-29T16:32:22.623Z,20.00
2022-07-29T16:35:02.258Z,19.72
2022-07-29T16:37:36.945Z,19.58
2022-07-29T16:40:11.806Z,19.46
2022-07-29T16:42:47.001Z,19.22
2022-07-29T16:45:21.463Z,19.13
2022-07-29T16:47:50.744Z,18.98
2022-07-29T16:50:20.258Z,18.76
2022-07-29T16:52:51.842Z,18.72
2022-07-29T16:55:22.046Z,18.59
2022-07-29T16:57:53.884Z,18.32
2022-07-29T17:00:24.957Z,18.16
2022-07-29T17:02:54.100Z,18.00
2022-07-29T17:05:24.181Z,17.82
2022-07-29T17:07:55.037Z,17.78
2022-07-29T17:10:24.645Z,17.70
2022-07-29T17:12:57.026Z,17.62
2022-07-29T17:15:27.066Z,17.62
2022-07-29T17:17:56.722Z,17.54
2022-07-29T17:20:29.975Z,17.47
2022-07-29T17:23:00.461Z,17.47
2022-07-29T17:25:29.295Z,17.43
2022-07-29T17:28:00.967Z,17.44
2022-07-29T17:30:30.590Z,17.40
2022-07-29T17:32:59.408Z,17.29
2022-07-29T17:35:45.783Z,17.20
2022-07-29T17:38:16.025Z,17.11
2022-07-29T17:40:53.967Z,17.05
2022-07-29T17:43:22.801Z,17.10
2022-07-29T17:45:52.085Z,17.05
2022-07-29T17:48:21.228Z,16.94
2022-07-29T17:50:51.124Z,16.94
2022-07-29T17:53:21.386Z,16.80
2022-07-29T17:55:50.263Z,16.82
2022-07-29T17:58:19.470Z,16.76
2022-07-29T18:00:51.342Z,16.76
2022-07-29T18:03:20.668Z,16.61
2022-07-29T18:05:49.847Z,16.67
2022-07-29T18:08:22.219Z,16.67
2022-07-29T18:10:52.657Z,16.58
2022-07-29T18:13:21.740Z,16.56
2022-07-29T18:15:50.936Z,16.51
2022-07-29T18:18:20.009Z,16.44
2022-07-29T18:20:49.362Z,16.41
2022-07-29T18:23:18.310Z,16.39
2022-07-29T18:25:49.039Z,16.41
2022-07-29T18:28:18.131Z,16.41
2022-07-29T18:30:50.265Z,16.40
2022-07-29T18:33:22.303Z,16.51
2022-07-29T18:36:10.877Z,16.51
2022-07-29T18:38:41.618Z,16.48
2022-07-29T18:41:12.189Z,16.54
2022-07-29T18:43:40.939Z,16.52
2022-07-29T18:46:09.738Z,16.45
2022-07-29T18:48:40.925Z,16.49
2022-07-29T18:51:10.921Z,16.47
2022-07-29T18:53:39.828Z,16.51
2022-07-29T18:56:08.584Z,16.47
2022-07-29T18:58:39.464Z,16.47
2022-07-29T19:01:08.371Z,16.49
2022-07-29T19:03:37.211Z,16.49
2022-07-29T19:06:06.840Z,16.42
2022-07-29T19:08:39.674Z,16.48
2022-07-29T19:11:08.602Z,16.51
2022-07-29T19:13:39.078Z,16.53
2022-07-29T19:16:13.479Z,16.51
2022-07-29T19:18:44.737Z,16.44
2022-07-29T19:21:13.640Z,16.53
2022-07-29T19:24:00.743Z,16.54
2022-07-29T19:26:33.466Z,16.52
2022-07-29T19:29:04.657Z,16.52
2022-07-29T19:31:34.990Z,16.47
2022-07-29T19:34:04.107Z,16.47
2022-07-29T19:36:32.990Z,16.52
2022-07-29T19:39:02.501Z,16.52
2022-07-29T19:41:31.744Z,16.55
2022-07-29T19:44:04.738Z,16.52
2022-07-29T19:46:33.498Z,16.57
2022-07-29T19:49:02.525Z,16.57
2022-07-29T19:51:31.622Z,16.53
2022-07-29T19:54:01.464Z,16.53
2022-07-29T19:56:32.073Z,16.48
2022-07-29T19:59:01.936Z,16.47
2022-07-29T20:01:33.322Z,16.49
2022-07-29T20:04:02.227Z,16.46
2022-07-29T20:06:31.061Z,16.47
2022-07-29T20:08:59.836Z,16.44
2022-07-29T20:11:29.854Z,16.44
2022-07-29T20:13:59.810Z,16.41
2022-07-29T20:16:28.636Z,16.40
2022-07-29T20:18:59.369Z,16.35
2022-07-29T20:21:28.179Z,16.36
2022-07-29T20:24:00.441Z,16.34
2022-07-29T20:26:29.460Z,16.32
2022-07-29T20:28:58.758Z,16.37
2022-07-29T20:31:27.869Z,16.36
2022-07-29T20:33:58.125Z,16.37
2022-07-29T20:36:26.911Z,16.34
2022-07-29T20:38:56.192Z,16.35
2022-07-29T20:41:25.312Z,16.37
2022-07-29T20:43:54.139Z,16.40
2022-07-29T20:46:26.066Z,16.37
2022-07-29T20:48:55.005Z,16.38
2022-07-29T20:51:25.741Z,16.44
2022-07-29T20:53:54.642Z,16.40
2022-07-29T20:56:23.406Z,16.45
2022-07-29T20:58:52.502Z,16.47
2022-07-29T21:01:21.660Z,16.44
2022-07-29T21:03:50.807Z,16.44
2022-07-29T21:06:19.645Z,16.50
2022-07-29T21:08:59.900Z,16.47
2022-07-29T21:11:43.385Z,16.44
2022-07-29T21:14:28.000Z,16.39
2022-07-29T21:16:57.179Z,16.40
2022-07-29T21:19:26.383Z,16.41
2022-07-29T21:21:55.212Z,16.32
2022-07-29T21:24:25.439Z,16.25
2022-07-29T21:27:20.738Z,16.34
2022-07-29T21:29:49.878Z,16.33
2022-07-29T21:32:27.385Z,16.35
2022-07-29T21:34:59.579Z,16.34
2022-07-29T21:37:28.435Z,16.38
2022-07-29T21:39:58.992Z,16.36
2022-07-29T21:42:28.121Z,16.30
2022-07-29T21:44:58.325Z,16.29
2022-07-29T21:47:27.271Z,16.25
2022-07-29T21:49:56.429Z,16.25
2022-07-29T21:52:26.219Z,16.29
2022-07-29T21:54:54.998Z,16.25
2022-07-29T21:57:26.568Z,16.23
2022-07-29T21:59:59.501Z,16.23
2022-07-29T22:02:32.033Z,16.22
2022-07-29T22:05:00.910Z,16.19
2022-07-29T22:07:54.330Z,16.14
2022-07-29T22:10:19.084Z,16.12
2022-07-29T22:12:53.150Z,16.03
2022-07-29T22:15:25.523Z,16.07
2022-07-29T22:17:54.834Z,16.05
2022-07-29T22:20:24.511Z,16.09
2022-07-29T22:22:54.070Z,16.05
2022-07-29T22:25:23.912Z,16.02
2022-07-29T22:27:54.172Z,16.05
2022-07-29T22:30:26.832Z,16.05
2022-07-29T22:32:55.640Z,16.09
2022-07-29T22:35:24.538Z,16.02
2022-07-29T22:37:54.279Z,16.03
2022-07-29T22:40:23.348Z,16.02
2022-07-29T22:43:00.967Z,16.00
2022-07-29T22:45:29.760Z,16.02
2022-07-29T22:48:01.734Z,15.98
2022-07-29T22:50:32.435Z,16.00
2022-07-29T22:53:01.324Z,16.01
2022-07-29T22:55:30.314Z,15.96
2022-07-29T22:58:00.564Z,16.02
2022-07-29T23:00:29.413Z,15.94
2022-07-29T23:02:58.188Z,15.96
2022-07-29T23:05:27.410Z,15.94
2022-07-29T23:07:56.191Z,15.95
2022-07-29T23:10:31.048Z,15.96
2022-07-29T23:13:02.755Z,15.90
2022-07-29T23:15:31.725Z,15.89
2022-07-29T23:18:00.892Z,15.86
2022-07-29T23:20:29.969Z,15.91
2022-07-29T23:22:58.737Z,15.82
2022-07-29T23:25:27.521Z,15.82
2022-07-29T23:27:56.344Z,15.81
2022-07-29T23:30:26.958Z,15.81
2022-07-29T23:32:56.324Z,15.83
2022-07-29T23:35:25.487Z,15.82
2022-07-29T23:37:54.696Z,15.79
2022-07-29T23:40:24.822Z,15.77
2022-07-29T23:42:53.656Z,15.74
2022-07-29T23:45:22.463Z,15.80
2022-07-29T23:48:10.273Z,15.73
2022-07-29T23:50:39.154Z,15.77
2022-07-29T23:53:07.978Z,15.77
2022-07-29T23:55:39.312Z,15.81
2022-07-29T23:58:08.339Z,15.77
